Página principal
METAR-TAF:

METAR-TAF

Aeroportos :

Aeroporto Internacional Tan Son Nhat

Cidade de Ho Chi Minh, Vietname

latitude: 10-49N, longitude: 106-40E, altura: 19 m

Observação actual do tempo

O boletim foi feito há 10 minutos, às 19:30 UTC
Vento 1 kt de nordeste
Temperatura 25°C
Humidade 100%
Pressão 1010 hPa
Visibilidade 10 km ou mais
Poucas nuvensa uma altura de 2000 ft

METAR: VVTS 201930Z 04001KT 9999 FEW020 25/25 Q1010 NOSIG

Hora: 02:40 (19:40 UTC)

Previsão

O boletim foi feito há 2 horas e 40 minutos, às 17:00 UTC
Previsão válida de 20 às 18 UTC a 21 às 24 UTC
Vento 8 kt de sudeste
Visibilidade 10 km ou mais
Poucas nuvensa uma altura de 1700 ft
Temporariamente
de 21 às 07 UTC a 21 às 11 UTC
Nuvens dispersasa uma altura de 1500 ft
Poucas nuvensa uma altura de 1700 ft, Cumulonimbus.
trovoada

TAF: VVTS 201700Z 2018/2124 13008KT 9999 FEW017 TEMPO 2107/2111 TS SCT015 FEW017CB

Observações e previsões do tempo de mais de 4000 aeroportos (mensagens METAR e TAF).

As estações disponíveis são os pontos amarelos e vermelhos sobre o mapa.

Mova o rato sobre o mapa para ver o nome da estação.

Depois clique no ponto para visualizar as observações e previsões meteorológicas.

Para alterar o mapa : clique nos botões verdes com uma cruz preta para aumentar o zoom; no botão verde com uma pitada de zoom; ou nas setas verdes para mapas adjacentes.


METAR-TAF: